Bookmark and Share
Track history (hours):
 

Gorch Fock (Germany)

Ship's website: http://www.marine.de/01DB070000000001/CurrentBaseLink/W2698K4S188INFODE

Last reported at 2014-Apr-09 14:33 UTC. Time now 2014-Apr-18 10:48 UTC.
Position N 56°38' E 011°44'.
Warning: this ship's position is 8 days out of date.

Length 89 m; draft 5.4 m.

Type: Sailing vessel. MMSI: 211210280.

NotesDate/timePositionNaut miles runAvg speedWind from/ knotsBaromVisibWave heightAir tempDewpointWater temp
2014-Apr-09 14:33N 56°38' E 011°44'10 9.5
2014-Apr-09 13:33N 56°47' E 011°51'9 8.9
2014-Apr-09 12:33N 56°55' E 011°45'8 8.2
2014-Apr-09 11:33N 57°03' E 011°40'8 7.9
2014-Apr-09 10:33N 57°10' E 011°35'9 8.8
2014-Apr-09 09:33N 57°18' E 011°29'8 8.0
2014-Apr-09 08:33N 57°26' E 011°23'8 7.7
2014-Apr-09 07:33N 57°32' E 011°14'8 7.6
2014-Apr-09 06:34N 57°38' E 011°08'9 8.6
2014-Apr-09 05:34N 57°47' E 011°05'8 7.6
2014-Apr-09 04:34N 57°54' E 011°00'7 7.3
2014-Apr-09 03:33N 57°60' E 010°52'7 6.5
2014-Apr-09 02:33N 58°05' E 010°45'7 6.7
2014-Apr-09 01:33N 58°05' E 010°32'7 7.1
2014-Apr-09 00:33N 58°02' E 010°19'8 7.5
2014-Apr-08 23:31N 58°00' E 010°05'160 5.3
2014-Apr-07 17:21N 58°37' E 005°10'5 6.6
2014-Apr-07 16:33N 58°42' E 005°12'8 7.6
2014-Apr-07 15:33N 58°50' E 005°15'8 7.5
2014-Apr-07 14:33N 58°57' E 005°18'5 5.2
2014-Apr-07 13:34N 59°02' E 005°19'7 6.6
2014-Apr-07 12:33N 59°07' E 005°27'8 7.9
2014-Apr-07 11:33N 59°02' E 005°38'5 4.5
2014-Apr-07 10:33N 58°58' E 005°44'0 0.0
2014-Apr-07 09:33N 58°58' E 005°44'0 0.0
2014-Apr-07 08:33N 58°58' E 005°44'0 0.0
2014-Apr-07 07:33N 58°58' E 005°44'0 0.0
2014-Apr-07 06:33N 58°58' E 005°44'0 0.0
2014-Apr-07 05:33N 58°58' E 005°44'0 0.0
2014-Apr-07 04:33N 58°58' E 005°44'0 0.0
2014-Apr-07 03:33N 58°58' E 005°44'0 0.0
2014-Apr-07 02:33N 58°58' E 005°44'0 0.0
2014-Apr-07 01:33N 58°58' E 005°44'0 0.0
2014-Apr-07 00:33N 58°58' E 005°44'0 0.0
2014-Apr-06 23:33N 58°58' E 005°44'0 0.0
2014-Apr-06 22:33N 58°58' E 005°44'0 0.0
2014-Apr-06 21:33N 58°58' E 005°44'0 0.0
2014-Apr-06 20:33N 58°58' E 005°44'0 0.0
2014-Apr-06 19:33N 58°58' E 005°44'0 0.0
2014-Apr-06 18:33N 58°58' E 005°44'0 0.0
2014-Apr-06 17:33N 58°58' E 005°44'0 0.0
2014-Apr-06 16:33N 58°58' E 005°44'0 0.0
2014-Apr-06 15:33N 58°58' E 005°44'0 0.0
2014-Apr-06 14:33N 58°58' E 005°44'0 0.0
2014-Apr-06 13:33N 58°58' E 005°44'0 0.0
2014-Apr-06 12:33N 58°58' E 005°44'0 0.0
2014-Apr-06 11:33N 58°58' E 005°44'0 0.0
2014-Apr-06 10:33N 58°58' E 005°44'0 0.0
2014-Apr-06 09:33N 58°58' E 005°44'0 0.0
2014-Apr-06 08:33N 58°58' E 005°44'0 0.0
2014-Apr-06 07:33N 58°58' E 005°44'0 0.0
2014-Apr-06 06:33N 58°58' E 005°44'0 0.0
2014-Apr-06 05:33N 58°58' E 005°44'0 0.0
2014-Apr-06 04:33N 58°58' E 005°44'0 0.0
2014-Apr-06 03:33N 58°58' E 005°44'0 0.0
2014-Apr-06 02:33N 58°58' E 005°44'0 0.0
2014-Apr-06 01:33N 58°58' E 005°44'0 0.0
2014-Apr-06 00:30N 58°58' E 005°44'0 0.0
2014-Apr-05 23:33N 58°58' E 005°44'0 0.0
2014-Apr-05 22:33N 58°58' E 005°44'0 0.0
2014-Apr-05 21:33N 58°58' E 005°44'0 0.0
2014-Apr-05 20:33N 58°58' E 005°44'0 0.0
2014-Apr-05 19:33N 58°58' E 005°44'0 0.0
2014-Apr-05 18:33N 58°58' E 005°44'0 0.0
2014-Apr-05 17:33N 58°58' E 005°44'0 0.0
2014-Apr-05 16:33N 58°58' E 005°44'0 0.0
2014-Apr-05 15:33N 58°58' E 005°44'0 0.0
2014-Apr-05 14:33N 58°58' E 005°44'0 0.0
2014-Apr-05 13:33N 58°58' E 005°44'0 0.0
2014-Apr-05 12:33N 58°58' E 005°44'0 0.0
2014-Apr-05 11:33N 58°58' E 005°44'0 0.0
2014-Apr-05 10:33N 58°58' E 005°44'0 0.0
2014-Apr-05 09:33N 58°58' E 005°44'0 0.0
2014-Apr-05 08:33N 58°58' E 005°44'0 0.0
2014-Apr-05 07:33N 58°58' E 005°44'0 0.0
2014-Apr-05 06:33N 58°58' E 005°44'0 0.0
2014-Apr-05 05:33N 58°58' E 005°44'0 0.0
2014-Apr-05 04:33N 58°58' E 005°44'0 0.0
2014-Apr-05 03:33N 58°58' E 005°44'0 0.0
2014-Apr-05 02:33N 58°58' E 005°44'0 0.0
2014-Apr-05 01:33N 58°58' E 005°44'0 0.0
2014-Apr-05 00:33N 58°58' E 005°44'0 0.0
2014-Apr-04 23:33N 58°58' E 005°44'0 0.0
2014-Apr-04 22:33N 58°58' E 005°44'0 0.0
2014-Apr-04 21:33N 58°58' E 005°44'0 0.0
2014-Apr-04 20:33N 58°58' E 005°44'0 0.0
2014-Apr-04 19:30N 58°58' E 005°44'0 0.0
2014-Apr-04 18:33N 58°58' E 005°44'0 0.0
2014-Apr-04 17:33N 58°58' E 005°44'0 0.0
2014-Apr-04 16:33N 58°58' E 005°44'0 0.0
2014-Apr-04 15:33N 58°58' E 005°44'0 0.0
2014-Apr-04 14:33N 58°58' E 005°44'0 0.0
2014-Apr-04 13:33N 58°58' E 005°44'0 0.0
2014-Apr-04 12:33N 58°58' E 005°44'0 0.0
2014-Apr-04 11:33N 58°58' E 005°44'0 0.0
2014-Apr-04 10:33N 58°58' E 005°44'0 0.0
2014-Apr-04 09:33N 58°58' E 005°44'0 0.0
2014-Apr-04 08:33N 58°58' E 005°44'0 0.2
2014-Apr-04 07:34N 58°59' E 005°44'6 6.2
2014-Apr-04 06:33N 59°03' E 005°35'5 5.5
2014-Apr-04 05:33N 59°05' E 005°25'7 7.1
2014-Apr-04 04:34N 59°03' E 005°13'9 8.5
2014-Apr-04 03:33N 58°60' E 004°57'9 8.9
2014-Apr-04 02:32N 58°57' E 004°41'  
2014-Apr-01 15:27N 55°09' E 006°36'1010.6
2014-Apr-01 14:33N 54°60' E 006°40'1010.0
2014-Apr-01 13:33N 54°50' E 006°47'9 9.2
2014-Apr-01 12:33N 54°42' E 006°54'9 8.9
2014-Apr-01 11:34N 54°34' E 007°01'7 6.8
2014-Apr-01 10:33N 54°28' E 007°05'9 8.6
2014-Apr-01 09:33N 54°20' E 006°59'1110.8
2014-Apr-01 08:33N 54°17' E 006°41'1110.8
2014-Apr-01 07:33N 54°15' E 006°23'1010.3
2014-Apr-01 06:33N 54°12' E 006°06'8 8.1
2014-Apr-01 05:33N 54°06' E 005°56'9 9.2
2014-Apr-01 04:34N 54°05' E 005°41'9 8.8
2014-Apr-01 03:33N 54°04' E 005°26'9 8.8
2014-Apr-01 02:33N 54°02' E 005°11'9 8.9
2014-Apr-01 01:33N 54°01' E 004°56'9 9.0
2014-Apr-01 00:33N 53°58' E 004°42'10 9.7
2014-Mar-31 23:33N 53°51' E 004°30'10 9.6
2014-Mar-31 22:33N 53°44' E 004°19'10 9.7
2014-Mar-31 21:32N 53°38' E 004°05'10 9.9
2014-Mar-31 20:33N 53°32' E 003°52'10 9.6
2014-Mar-31 19:33N 53°25' E 003°43'1010.2
2014-Mar-31 18:33N 53°15' E 003°36'1110.8
2014-Mar-31 17:33N 53°06' E 003°28'1111.4
2014-Mar-31 16:33N 52°55' E 003°22'6810.9
2014-Mar-31 10:16N 51°52' E 002°39'6 8.6
2014-Mar-31 09:33N 51°46' E 002°35'9 8.6
2014-Mar-31 08:33N 51°39' E 002°26'9 8.6
2014-Mar-31 07:33N 51°33' E 002°18'9 9.3
2014-Mar-31 06:33N 51°24' E 002°11'10 9.8
2014-Mar-31 05:34N 51°18' E 001°59'1010.3
2014-Mar-31 04:33N 51°11' E 001°47'1110.8
2014-Mar-31 03:33N 51°03' E 001°36'1212.0
2014-Mar-31 02:33N 50°52' E 001°29'3411.4
2014-Mar-30 23:32N 50°26' E 000°52'1111.7
2014-Mar-30 22:33N 50°23' E 000°35'1512.4
2014-Mar-30 21:20N 50°19' E 000°12'5112.8
2014-Mar-30 17:20N 50°05' W 001°05'810.0
2014-Mar-30 16:33N 50°03' W 001°17'  

Dump ship's entire track history

sailing weather and tide predictions

Gorch Fock — DRAX — position and weather